createdAt,value
2023-10-12T00:03:23.123Z,95.26
2023-10-12T00:08:34.689Z,94.27
2023-10-12T00:13:42.797Z,94.68
2023-10-12T00:18:47.043Z,93.61
2023-10-12T00:23:48.919Z,93.82
2023-10-12T00:28:52.513Z,93.60
2023-10-12T00:33:54.566Z,93.67
2023-10-12T00:38:58.303Z,100.00
2023-10-12T00:44:13.966Z,93.39
2023-10-12T00:49:23.688Z,93.78
2023-10-12T00:54:39.610Z,93.86
2023-10-12T00:59:44.656Z,94.21
2023-10-12T01:04:49.582Z,94.33
2023-10-12T01:10:04.320Z,94.61
2023-10-12T01:15:12.157Z,93.53
2023-10-12T01:20:26.963Z,93.46
2023-10-12T01:25:30.824Z,93.38
2023-10-12T01:30:37.408Z,92.36
2023-10-12T01:35:41.036Z,92.83
2023-10-12T01:40:51.626Z,92.05
2023-10-12T01:46:01.006Z,91.40
2023-10-12T01:51:15.891Z,91.28
2023-10-12T01:56:17.875Z,90.89
2023-10-12T02:01:20.599Z,90.63
2023-10-12T02:06:24.719Z,90.76
2023-10-12T02:11:27.574Z,90.63
2023-10-12T02:16:39.538Z,90.72
2023-10-12T02:21:42.496Z,90.98
2023-10-12T02:26:53.815Z,90.76
2023-10-12T02:31:55.705Z,91.07
2023-10-12T02:37:12.126Z,91.90
2023-10-12T02:42:16.599Z,90.96
2023-10-12T02:47:23.769Z,90.66
2023-10-12T02:52:26.631Z,90.44
2023-10-12T02:57:32.468Z,90.90
2023-10-12T03:02:34.579Z,91.46
2023-10-12T03:07:39.681Z,91.15
2023-10-12T03:12:45.107Z,91.10
2023-10-12T03:17:54.739Z,91.34
2023-10-12T03:23:01.260Z,91.42
2023-10-12T03:28:12.925Z,91.25
2023-10-12T03:33:17.022Z,91.29
2023-10-12T03:38:20.520Z,91.97
2023-10-12T03:43:28.250Z,91.42
2023-10-12T03:48:48.500Z,91.79
2023-10-12T03:54:06.144Z,91.43
2023-10-12T03:59:08.463Z,91.17
2023-10-12T04:04:20.852Z,91.19
2023-10-12T04:09:33.518Z,90.60
2023-10-12T04:14:38.096Z,91.53
2023-10-12T04:19:46.044Z,91.84
2023-10-12T04:24:49.370Z,92.20
2023-10-12T04:29:58.493Z,92.11
2023-10-12T04:35:02.333Z,92.24
2023-10-12T04:40:26.284Z,92.87
2023-10-12T04:45:31.372Z,93.68
2023-10-12T04:50:53.483Z,98.35
2023-10-12T04:56:01.215Z,98.01
2023-10-12T05:01:31.709Z,96.36
2023-10-12T05:06:36.963Z,96.92
2023-10-12T05:11:39.929Z,96.23
2023-10-12T05:16:44.569Z,95.42
2023-10-12T05:21:46.447Z,96.25
2023-10-12T05:26:54.564Z,95.92
2023-10-12T05:32:08.135Z,94.90
2023-10-12T05:37:18.062Z,96.13
2023-10-12T05:42:23.926Z,96.42
2023-10-12T05:47:31.089Z,95.53
2023-10-12T05:52:36.170Z,95.50
2023-10-12T05:57:38.346Z,93.62
2023-10-12T06:02:40.252Z,92.09
2023-10-12T06:07:44.877Z,91.12
2023-10-12T06:12:47.927Z,90.50
2023-10-12T06:17:52.464Z,89.76
2023-10-12T06:22:56.244Z,89.97
2023-10-12T06:27:58.145Z,89.45
2023-10-12T06:33:01.181Z,87.71
2023-10-12T06:38:23.957Z,86.09
2023-10-12T06:43:28.571Z,85.75
2023-10-12T06:48:30.827Z,85.49
2023-10-12T06:53:38.356Z,85.65
2023-10-12T06:58:40.663Z,85.58
2023-10-12T07:03:42.666Z,83.57
2023-10-12T07:08:47.461Z,85.04
2023-10-12T07:13:51.056Z,83.71
2023-10-12T07:19:08.660Z,82.54
2023-10-12T07:24:17.632Z,81.41
2023-10-12T07:29:21.225Z,81.17
2023-10-12T07:34:25.407Z,81.64
2023-10-12T07:39:39.981Z,80.90
2023-10-12T07:44:55.367Z,79.89
2023-10-12T07:49:58.828Z,78.86
2023-10-12T07:55:00.930Z,77.25
2023-10-12T08:00:10.109Z,77.63
2023-10-12T08:05:39.218Z,76.78
2023-10-12T08:10:41.028Z,75.14
2023-10-12T08:15:55.257Z,74.67
2023-10-12T08:21:01.794Z,72.81
2023-10-12T08:26:21.771Z,70.98
2023-10-12T08:31:29.264Z,71.92
2023-10-12T08:36:31.284Z,71.52
2023-10-12T08:41:54.822Z,70.96
2023-10-12T08:46:56.866Z,69.09
2023-10-12T08:52:06.701Z,69.06
2023-10-12T08:57:39.745Z,70.63
2023-10-12T09:02:41.613Z,72.03
2023-10-12T09:07:49.474Z,71.16
2023-10-12T09:12:52.044Z,71.17
2023-10-12T09:17:54.158Z,71.26
2023-10-12T09:23:04.630Z,72.00
2023-10-12T09:28:09.398Z,100.00
2023-10-12T09:33:31.158Z,100.00
2023-10-12T09:38:39.318Z,100.00
2023-10-12T09:43:45.365Z,100.00
2023-10-12T09:48:48.680Z,100.00
2023-10-12T09:53:59.968Z,100.00
2023-10-12T09:59:14.798Z,100.00
2023-10-12T10:04:27.646Z,100.00
2023-10-12T10:09:29.741Z,100.00
2023-10-12T10:14:38.813Z,100.00
2023-10-12T10:19:40.849Z,100.00
2023-10-12T10:24:47.728Z,100.00
2023-10-12T10:29:57.296Z,100.00
2023-10-12T10:35:05.320Z,100.00
2023-10-12T10:40:18.591Z,100.00
2023-10-12T10:45:20.626Z,100.00
2023-10-12T10:50:22.746Z,100.00
2023-10-12T10:55:27.007Z,100.00
2023-10-12T11:00:40.899Z,100.00
2023-10-12T11:05:46.003Z,100.00
2023-10-12T11:11:08.880Z,100.00
2023-10-12T11:16:43.008Z,100.00
2023-10-12T11:21:53.332Z,100.00
2023-10-12T11:26:57.209Z,100.00
2023-10-12T11:32:12.478Z,100.00
2023-10-12T11:37:22.988Z,100.00
2023-10-12T12:05:13.036Z,100.00
2023-10-12T12:10:19.224Z,100.00
2023-10-12T12:15:21.250Z,100.00
2023-10-12T12:20:23.273Z,100.00
2023-10-12T12:25:33.469Z,100.00
2023-10-12T12:30:57.795Z,100.00
2023-10-12T12:36:02.558Z,100.00
2023-10-12T12:41:07.804Z,100.00
2023-10-12T12:46:11.720Z,100.00
2023-10-12T12:51:17.500Z,100.00
2023-10-12T12:56:21.343Z,100.00
2023-10-12T13:01:27.726Z,100.00
2023-10-12T13:06:29.630Z,100.00
2023-10-12T13:11:31.512Z,100.00
2023-10-12T13:16:36.361Z,100.00
2023-10-12T13:21:43.243Z,100.00
2023-10-12T13:26:45.153Z,100.00
2023-10-12T13:31:48.329Z,100.00
2023-10-12T13:36:50.491Z,100.00
